Aviation Digital Data Service (ADDS)

Output produced by METARs form (1137 UTC 19 February 2019)
found at http://www.aviationweather.gov/metar/data/
 
Forecast for: WBKW (TAWAU/KALIMANTAN, MY)
Text: TAF WBKW 191100Z 1912/2012 32005KT 9999 FEW017
Forecast period: 1200 UTC 19 February 2019 to 1200 UTC 20 February 2019
Forecast type: FROM: standard forecast or significant change
Winds: from the NW (320 degrees) at 6 MPH (5 knots; 2.6 m/s)
Visibility: 6 or more miles 10+ km)
Ceiling: at least 12,000 feet AGL
Clouds: few clouds at 1700 feet AGL
Weather: no significant weather forecast for this period